Time;durP1;ratioP1;P1;durP2;ratioP2;P2;SDS_P1;SDS_P2;PMS_P1;PMS_P2;Temp;Humidity;BMP_temperature;BMP_pressure;BME280_temperature;BME280_humidity;BME280_pressure;Samples;Min_cycle;Max_cycle;Signal;HPM_P1;HPM_P2
2023/02/03 00:00:33;;;;;;;8.90;5.50;;;;;;;-0.96;92.12;97025.14;108750;1271;49390;-79
2023/02/03 00:03:24;;;;;;;8.60;5.10;;;;;;;-0.98;92.27;97034.94;108698;1268;172872;-80
2023/02/03 00:05:56;;;;;;;9.40;5.60;;;;;;;-0.98;92.43;97033.57;109098;1275;22527;-79
2023/02/03 00:08:31;;;;;;;8.10;5.70;;;;;;;-0.98;92.37;97050.71;108825;1274;22511;-79
2023/02/03 00:11:03;;;;;;;12.30;5.60;;;;;;;-0.98;92.23;97040.46;108801;1271;70031;-79
2023/02/03 00:13:39;;;;;;;7.20;4.30;;;;;;;-1.00;92.29;97042.16;108781;1274;22536;-79
2023/02/03 00:16:10;;;;;;;8.40;3.70;;;;;;;-1.04;92.46;97046.99;108833;1271;22549;-79
2023/02/03 00:18:43;;;;;;;6.00;4.40;;;;;;;-1.06;92.33;97040.15;108845;1274;22706;-79
2023/02/03 00:21:15;;;;;;;8.80;4.60;;;;;;;-1.09;92.03;97039.50;108799;1271;60602;-79
2023/02/03 00:23:46;;;;;;;6.90;4.10;;;;;;;-1.11;92.28;97047.10;108779;1275;24210;-79
2023/02/03 00:26:19;;;;;;;8.90;4.80;;;;;;;-1.13;92.36;97053.52;108838;1274;22538;-79
2023/02/03 00:28:52;;;;;;;9.40;4.70;;;;;;;-1.14;92.18;97050.02;108809;1267;29964;-79
2023/02/03 00:31:24;;;;;;;6.30;3.90;;;;;;;-1.16;92.53;97053.70;108815;1274;24257;-79
2023/02/03 00:33:59;;;;;;;6.50;4.10;;;;;;;-1.17;92.56;97058.23;108796;1275;22585;-79
2023/02/03 00:36:30;;;;;;;11.70;4.80;;;;;;;-1.19;92.32;97067.10;108841;1269;23772;-79
2023/02/03 00:39:04;;;;;;;7.80;4.80;;;;;;;-1.20;92.34;97073.58;108776;1274;44917;-78
2023/02/03 00:41:37;;;;;;;9.50;5.80;;;;;;;-1.19;92.42;97086.99;108821;1275;22924;-79
2023/02/03 00:44:13;;;;;;;11.70;5.70;;;;;;;-1.18;92.54;97086.20;108771;1274;24197;-79
2023/02/03 00:46:45;;;;;;;8.90;5.20;;;;;;;-1.18;92.03;97075.87;108813;1275;22531;-79
2023/02/03 00:49:18;;;;;;;10.10;5.40;;;;;;;-1.18;92.08;97085.19;108840;1269;37329;-79
2023/02/03 00:51:49;;;;;;;11.50;6.20;;;;;;;-1.17;92.04;97085.77;108850;1275;23811;-79
2023/02/03 00:54:20;;;;;;;9.60;5.50;;;;;;;-1.18;92.02;97087.11;108817;1274;22741;-79
2023/02/03 00:56:52;;;;;;;9.60;4.60;;;;;;;-1.20;92.38;97083.70;108842;1274;22579;-79
2023/02/03 00:59:24;;;;;;;6.70;3.90;;;;;;;-1.24;92.63;97083.61;108773;1274;33579;-79
2023/02/03 01:01:57;;;;;;;8.10;5.20;;;;;;;-1.29;92.74;97093.20;108790;1274;22539;-79
2023/02/03 01:04:30;;;;;;;8.50;4.90;;;;;;;-1.30;92.76;97094.92;108850;1268;22514;-79
2023/02/03 01:07:03;;;;;;;11.00;6.40;;;;;;;-1.29;92.96;97084.29;108840;1274;22517;-79
2023/02/03 01:09:39;;;;;;;9.00;5.20;;;;;;;-1.30;92.89;97099.65;108754;1267;42019;-79
2023/02/03 01:12:10;;;;;;;9.70;6.00;;;;;;;-1.29;93.11;97092.77;108869;1274;23859;-79
2023/02/03 01:14:41;;;;;;;9.10;5.60;;;;;;;-1.28;92.74;97104.62;108851;1275;22529;-79
2023/02/03 01:17:19;;;;;;;9.20;4.00;;;;;;;-1.26;92.83;97106.25;108899;1272;22533;-79
2023/02/03 01:19:51;;;;;;;8.60;5.10;;;;;;;-1.29;92.86;97110.05;108811;1272;34171;-79
2023/02/03 01:22:23;;;;;;;7.20;4.10;;;;;;;-1.32;93.03;97108.56;108827;1274;23030;-79
2023/02/03 01:24:55;;;;;;;9.70;5.40;;;;;;;-1.33;93.00;97095.15;108790;1275;22520;-79
2023/02/03 01:27:26;;;;;;;6.20;3.90;;;;;;;-1.34;92.91;97098.47;108859;1274;25453;-79
2023/02/03 01:29:57;;;;;;;8.00;4.80;;;;;;;-1.38;93.08;97105.81;107222;1274;2133377;-79
2023/02/03 01:32:30;;;;;;;6.30;4.20;;;;;;;-1.40;93.07;97116.52;108798;1267;22511;-79
2023/02/03 01:35:01;;;;;;;7.40;4.10;;;;;;;-1.41;93.06;97116.48;108775;1275;22544;-79
2023/02/03 01:37:32;;;;;;;6.60;3.80;;;;;;;-1.41;93.12;97110.93;108845;1275;25470;-79
2023/02/03 01:40:04;;;;;;;6.70;4.30;;;;;;;-1.41;93.05;97123.94;108749;1274;109055;-79
2023/02/03 01:42:37;;;;;;;8.90;5.20;;;;;;;-1.42;92.67;97117.60;108851;1275;22560;-78
2023/02/03 01:45:11;;;;;;;7.50;4.40;;;;;;;-1.43;92.71;97115.13;108848;1275;22661;-78
2023/02/03 01:47:49;;;;;;;11.10;4.10;;;;;;;-1.43;92.79;97107.05;108831;1267;22539;-78
2023/02/03 01:50:25;;;;;;;8.60;4.40;;;;;;;-1.43;92.85;97108.04;108791;1269;31244;-78
2023/02/03 01:53:03;;;;;;;7.20;4.40;;;;;;;-1.43;92.65;97107.88;108860;1274;22517;-78
2023/02/03 01:55:37;;;;;;;8.70;4.80;;;;;;;-1.43;92.38;97105.64;108788;1274;22886;-78
2023/02/03 01:58:16;;;;;;;8.10;4.30;;;;;;;-1.44;92.30;97104.12;108839;1275;24158;-78
2023/02/03 02:00:52;;;;;;;6.40;3.10;;;;;;;-1.44;92.25;97099.15;107281;1274;2088462;-79
2023/02/03 02:03:28;;;;;;;8.40;4.00;;;;;;;-1.44;92.00;97095.75;108773;1274;22521;-79
2023/02/03 02:06:05;;;;;;;8.80;5.10;;;;;;;-1.47;92.16;97101.94;108833;1274;22516;-79
2023/02/03 02:08:38;;;;;;;4.90;3.70;;;;;;;-1.49;92.20;97094.61;108919;1269;23899;-79
2023/02/03 02:11:10;;;;;;;6.50;3.80;;;;;;;-1.52;92.70;97100.36;108812;1275;39469;-79
2023/02/03 02:13:43;;;;;;;9.00;5.00;;;;;;;-1.54;92.43;97095.41;108795;1274;22457;-79
2023/02/03 02:16:21;;;;;;;8.00;4.90;;;;;;;-1.55;92.52;97097.92;108818;1274;22691;-79
2023/02/03 02:19:16;;;;;;;8.20;3.70;;;;;;;-1.55;92.23;97091.52;108780;1266;49488;-79
2023/02/03 02:22:02;;;;;;;7.40;4.50;;;;;;;-1.55;92.37;97085.48;108838;1274;25424;-79
2023/02/03 02:25:04;;;;;;;7.40;4.20;;;;;;;-1.56;92.03;97090.79;108858;1274;24904;-79
2023/02/03 02:28:30;;;;;;;10.10;5.20;;;;;;;-1.57;91.73;97089.66;108831;1275;22530;-79
2023/02/03 02:31:26;;;;;;;9.80;5.00;;;;;;;-1.57;91.68;97086.67;108209;1280;48447;-79
2023/02/03 02:34:10;;;;;;;5.60;3.70;;;;;;;-1.58;91.34;97085.42;108662;1274;24213;-79
2023/02/03 02:37:00;;;;;;;6.40;4.00;;;;;;;-1.59;91.24;97083.46;108814;1274;22544;-79
2023/02/03 02:39:38;;;;;;;7.20;4.00;;;;;;;-1.60;90.96;97083.62;108729;1269;36379;-79
2023/02/03 02:42:21;;;;;;;7.20;3.50;;;;;;;-1.61;90.99;97082.73;108872;1273;22531;-79
2023/02/03 02:45:05;;;;;;;6.10;3.40;;;;;;;-1.62;90.91;97085.29;108823;1271;22672;-79
2023/02/03 02:47:36;;;;;;;5.20;3.20;;;;;;;-1.63;90.62;97082.40;108832;1274;23007;-79
2023/02/03 02:50:14;;;;;;;4.40;2.80;;;;;;;-1.64;90.48;97080.35;108752;1270;44870;-80
2023/02/03 02:52:49;;;;;;;6.10;3.50;;;;;;;-1.65;90.14;97087.46;108800;1274;22525;-79
2023/02/03 02:55:30;;;;;;;5.10;2.90;;;;;;;-1.68;89.98;97086.89;108811;1274;22633;-79
2023/02/03 02:58:05;;;;;;;5.40;3.30;;;;;;;-1.71;89.59;97087.80;108839;1274;22536;-79
2023/02/03 03:00:43;;;;;;;4.20;2.80;;;;;;;-1.73;89.32;97090.71;108729;1275;43814;-79
2023/02/03 03:03:18;;;;;;;7.10;3.40;;;;;;;-1.75;88.99;97088.30;108801;1274;22513;-79
2023/02/03 03:05:54;;;;;;;5.90;3.60;;;;;;;-1.75;88.42;97090.27;108774;1274;22599;-79
2023/02/03 03:08:35;;;;;;;6.20;4.00;;;;;;;-1.78;88.58;97093.01;108831;1274;22531;-79
2023/02/03 03:11:09;;;;;;;5.10;3.30;;;;;;;-1.81;88.61;97087.04;107058;1272;2326261;-79
2023/02/03 03:13:45;;;;;;;7.10;4.00;;;;;;;-1.82;88.57;97085.48;108805;1275;24234;-79
2023/02/03 03:16:18;;;;;;;9.60;4.30;;;;;;;-1.84;88.83;97088.67;108830;1274;25463;-79
2023/02/03 03:19:00;;;;;;;7.90;3.70;;;;;;;-1.86;88.41;97082.83;108824;1274;22570;-79
2023/02/03 03:21:39;;;;;;;6.50;3.70;;;;;;;-1.87;88.61;97075.73;108789;1275;22647;-79
2023/02/03 03:24:17;;;;;;;6.30;3.40;;;;;;;-1.89;88.41;97063.70;108819;1273;22541;-78
2023/02/03 03:27:05;;;;;;;6.50;3.80;;;;;;;-1.92;88.23;97054.44;108778;1274;22665;-78
2023/02/03 03:29:48;;;;;;;4.30;3.30;;;;;;;-1.92;87.99;97049.20;108772;1271;42124;-78
2023/02/03 03:32:24;;;;;;;5.60;2.40;;;;;;;-1.93;87.82;97042.01;108798;1275;22527;-78
2023/02/03 03:34:56;;;;;;;4.80;2.50;;;;;;;-1.93;87.77;97033.21;108800;1274;22521;-78
2023/02/03 03:37:37;;;;;;;7.60;3.30;;;;;;;-1.94;87.76;97029.16;108814;1275;22531;-78
2023/02/03 03:40:15;;;;;;;5.40;3.00;;;;;;;-1.96;87.84;97027.60;108757;1271;62197;-78
2023/02/03 03:42:50;;;;;;;6.00;3.10;;;;;;;-1.99;87.75;97033.35;108749;1271;23114;-78
2023/02/03 03:45:28;;;;;;;7.70;3.70;;;;;;;-2.02;87.89;97042.13;108764;1275;24987;-78
2023/02/03 03:48:07;;;;;;;7.00;3.80;;;;;;;-2.07;87.75;97047.70;108730;1269;24977;-78
2023/02/03 03:50:47;;;;;;;5.80;3.60;;;;;;;-2.08;87.74;97060.35;108804;1275;39263;-79
2023/02/03 03:53:26;;;;;;;7.80;3.40;;;;;;;-2.10;87.81;97065.97;108827;1274;22533;-79
2023/02/03 03:56:00;;;;;;;7.30;3.90;;;;;;;-2.13;87.86;97065.37;108792;1274;22552;-79
2023/02/03 03:58:43;;;;;;;5.30;3.00;;;;;;;-2.15;88.08;97065.63;108822;1275;25461;-79
2023/02/03 04:01:17;;;;;;;6.50;4.10;;;;;;;-2.17;88.07;97067.66;108769;1271;45996;-79
2023/02/03 04:03:52;;;;;;;6.20;3.00;;;;;;;-2.20;88.08;97069.27;108819;1272;22518;-79
2023/02/03 04:06:26;;;;;;;7.30;3.70;;;;;;;-2.26;87.97;97073.17;108778;1275;22721;-79
2023/02/03 04:09:00;;;;;;;6.80;3.50;;;;;;;-2.28;88.19;97066.91;108776;1253;22531;-79
2023/02/03 04:14:23;;;;;;;5.10;2.90;;;;;;;-2.29;87.94;97048.01;108810;1275;24276;-79
2023/02/03 04:16:54;;;;;;;6.30;3.40;;;;;;;-2.33;87.79;97037.23;108792;1268;24192;-79
2023/02/03 04:19:25;;;;;;;4.40;2.00;;;;;;;-2.36;87.82;97027.98;108942;1267;78852;-79
2023/02/03 04:21:56;;;;;;;3.80;2.30;;;;;;;-2.42;87.69;97023.52;109019;1274;24388;-79
2023/02/03 04:24:30;;;;;;;4.10;2.10;;;;;;;-2.42;87.94;97018.20;109037;1275;22565;-79
2023/02/03 04:27:03;;;;;;;4.90;2.90;;;;;;;-2.43;87.74;97018.09;109053;1274;22540;-79
2023/02/03 04:29:39;;;;;;;5.00;2.60;;;;;;;-2.43;87.75;97015.73;108970;1268;99912;-80
2023/02/03 04:32:10;;;;;;;5.10;2.90;;;;;;;-2.44;88.04;97012.29;109028;1274;23848;-79
2023/02/03 04:34:42;;;;;;;4.20;2.00;;;;;;;-2.46;87.83;97017.77;109061;1275;22576;-79
2023/02/03 04:37:16;;;;;;;6.10;2.70;;;;;;;-2.48;87.89;97017.17;109025;1275;24222;-79
2023/02/03 04:39:47;;;;;;;4.60;2.60;;;;;;;-2.51;87.68;97012.95;108992;1274;36402;-79
2023/02/03 04:42:21;;;;;;;3.70;2.80;;;;;;;-2.52;87.53;97016.30;109061;1272;22582;-79
2023/02/03 04:44:52;;;;;;;5.50;2.10;;;;;;;-2.52;87.82;97017.30;109005;1274;22568;-80
2023/02/03 04:47:27;;;;;;;5.50;3.00;;;;;;;-2.52;87.85;97015.43;109047;1267;22706;-79
2023/02/03 04:49:59;;;;;;;6.60;2.70;;;;;;;-2.51;87.53;97022.73;108989;1274;44815;-79
2023/02/03 04:52:32;;;;;;;4.90;3.10;;;;;;;-2.51;87.64;97029.16;108874;1269;24209;-79
2023/02/03 04:55:07;;;;;;;5.30;3.10;;;;;;;-2.51;87.55;97030.05;108785;1274;22546;-79
2023/02/03 04:57:42;;;;;;;6.50;3.70;;;;;;;-2.51;87.79;97028.01;109082;1274;22699;-80
2023/02/03 05:00:16;;;;;;;4.10;2.20;;;;;;;-2.52;87.85;97027.68;108762;1274;54449;-80
2023/02/03 05:02:48;;;;;;;3.50;2.10;;;;;;;-2.51;87.99;97023.78;109072;1274;22538;-79
2023/02/03 05:05:24;;;;;;;5.80;3.00;;;;;;;-2.45;87.99;97017.91;109018;1275;22551;-79
2023/02/03 05:07:59;;;;;;;3.40;2.40;;;;;;;-2.44;88.18;97018.04;109003;1275;22517;-79
2023/02/03 05:10:32;;;;;;;7.40;2.40;;;;;;;-2.44;87.95;97016.20;108833;1275;30460;-79
2023/02/03 05:13:05;;;;;;;4.20;2.40;;;;;;;-2.43;87.76;97016.57;108803;1275;22650;-79
2023/02/03 05:15:36;;;;;;;5.40;2.40;;;;;;;-2.42;87.63;97013.86;108801;1274;24063;-79
2023/02/03 05:18:07;;;;;;;4.20;2.70;;;;;;;-2.42;87.61;97013.81;108816;1271;22530;-79
2023/02/03 05:20:38;;;;;;;3.90;2.70;;;;;;;-2.42;87.42;97006.91;107438;1275;1857575;-79
2023/02/03 05:23:14;;;;;;;5.30;3.50;;;;;;;-2.42;87.53;97001.67;108783;1275;23679;-79
2023/02/03 05:25:49;;;;;;;7.40;3.80;;;;;;;-2.40;87.45;97002.54;108793;1275;22524;-79
2023/02/03 05:28:21;;;;;;;4.70;2.60;;;;;;;-2.41;87.34;97004.23;108772;1274;25348;-79
2023/02/03 05:30:53;;;;;;;5.30;3.50;;;;;;;-2.42;87.19;97000.64;108779;1272;36036;-79
2023/02/03 05:33:24;;;;;;;5.40;2.50;;;;;;;-2.43;86.85;96999.83;108827;1251;22516;-79
2023/02/03 05:35:56;;;;;;;5.40;3.00;;;;;;;-2.44;86.66;96993.13;108796;1253;22532;-78
2023/02/03 05:38:27;;;;;;;5.10;3.00;;;;;;;-2.44;86.37;96987.81;108786;1275;22632;-79
2023/02/03 05:43:58;;;;;;;5.30;3.20;;;;;;;-2.47;85.38;96984.71;108502;1274;22539;-78
2023/02/03 05:46:32;;;;;;;3.90;2.70;;;;;;;-2.49;85.30;96990.85;108810;1274;22518;-78
2023/02/03 05:49:03;;;;;;;5.50;2.80;;;;;;;-2.54;85.60;96987.28;108808;1274;22521;-78
2023/02/03 05:51:37;;;;;;;6.60;3.80;;;;;;;-2.56;85.54;96983.26;108759;1271;22639;-78
2023/02/03 05:54:08;;;;;;;7.90;4.00;;;;;;;-2.60;85.39;96984.39;108762;1275;22819;-78
2023/02/03 05:56:40;;;;;;;3.90;2.50;;;;;;;-2.64;85.63;96980.73;108786;1274;22519;-78
2023/02/03 05:59:12;;;;;;;5.70;3.00;;;;;;;-2.66;85.61;96975.33;108712;1275;116439;-79
2023/02/03 06:01:44;;;;;;;5.60;4.10;;;;;;;-2.66;85.83;96969.61;108771;1272;22629;-78
2023/02/03 06:04:17;;;;;;;4.10;2.20;;;;;;;-2.68;85.94;96965.82;108838;1269;22534;-78
2023/02/03 06:06:49;;;;;;;4.80;3.20;;;;;;;-2.65;85.80;96967.43;108805;1271;23314;-78
2023/02/03 06:09:20;;;;;;;6.50;3.10;;;;;;;-2.62;85.87;96958.27;108770;1266;59615;-78
2023/02/03 06:11:51;;;;;;;5.90;3.00;;;;;;;-2.61;85.53;96954.28;108772;1275;22635;-78
2023/02/03 06:14:36;;;;;;;5.50;3.00;;;;;;;-2.60;85.24;96948.34;108807;1272;22529;-78
2023/02/03 06:17:07;;;;;;;5.30;3.20;;;;;;;-2.62;85.20;96944.65;109004;1275;22654;-78
2023/02/03 06:19:38;;;;;;;5.10;3.80;;;;;;;-2.62;85.23;96944.41;109031;1272;22520;-78
2023/02/03 06:22:10;;;;;;;6.30;3.00;;;;;;;-2.65;85.33;96940.44;108958;1275;22554;-78
2023/02/03 06:24:43;;;;;;;8.70;4.70;;;;;;;-2.71;85.32;96943.13;108812;1274;22520;-78
2023/02/03 06:27:14;;;;;;;9.30;4.80;;;;;;;-2.73;85.62;96944.19;109033;1275;22762;-78
2023/02/03 06:29:46;;;;;;;10.00;5.20;;;;;;;-2.75;85.52;96934.84;108889;1274;64743;-78
2023/02/03 06:32:22;;;;;;;8.60;4.30;;;;;;;-2.74;85.55;96926.81;108775;1271;22540;-78
2023/02/03 06:34:53;;;;;;;4.60;3.20;;;;;;;-2.73;85.48;96917.01;108740;1275;24190;-78
2023/02/03 06:37:27;;;;;;;6.00;4.30;;;;;;;-2.74;85.40;96900.87;108833;1275;22561;-78
2023/02/03 06:39:58;;;;;;;6.60;3.70;;;;;;;-2.74;85.15;96902.59;108772;1274;23854;-78
2023/02/03 06:42:29;;;;;;;6.70;3.20;;;;;;;-2.72;85.05;96897.89;108789;1275;22516;-78
2023/02/03 06:45:02;;;;;;;8.10;3.50;;;;;;;-2.72;84.64;96892.23;108802;1275;22838;-78
2023/02/03 06:47:34;;;;;;;5.40;3.10;;;;;;;-2.71;84.28;96889.71;108773;1270;23756;-78
2023/02/03 06:50:06;;;;;;;6.30;3.80;;;;;;;-2.70;83.84;96883.92;108760;1275;23951;-78
2023/02/03 06:52:38;;;;;;;6.40;3.30;;;;;;;-2.71;83.76;96885.73;108806;1275;24234;-78
2023/02/03 06:55:12;;;;;;;7.20;3.80;;;;;;;-2.72;83.78;96885.16;109010;1275;24220;-78
2023/02/03 06:57:47;;;;;;;6.00;3.20;;;;;;;-2.71;83.63;96886.64;109031;1274;22602;-78
2023/02/03 07:00:23;;;;;;;8.50;4.20;;;;;;;-2.69;83.75;96886.53;108994;1270;25317;-78
2023/02/03 07:02:58;;;;;;;5.90;3.70;;;;;;;-2.66;83.75;96886.09;108810;1272;22538;-78
2023/02/03 07:05:32;;;;;;;7.80;3.50;;;;;;;-2.63;83.47;96878.13;108853;1271;22610;-78
2023/02/03 07:08:04;;;;;;;8.90;4.30;;;;;;;-2.62;83.18;96877.46;108789;1275;24250;-78
2023/02/03 07:10:35;;;;;;;6.80;3.70;;;;;;;-2.59;83.21;96889.33;108816;1275;22960;-78
2023/02/03 07:13:10;;;;;;;7.30;3.90;;;;;;;-2.54;83.08;96888.70;109047;1271;22575;-78
2023/02/03 07:15:41;;;;;;;8.10;3.80;;;;;;;-2.50;83.16;96887.21;109048;1271;22475;-78
2023/02/03 07:18:12;;;;;;;8.00;4.90;;;;;;;-2.45;83.30;96877.89;108975;1275;22626;-78
2023/02/03 07:20:43;;;;;;;6.20;3.90;;;;;;;-2.42;83.02;96875.63;108846;1270;23015;-78
2023/02/03 07:23:17;;;;;;;4.20;3.00;;;;;;;-2.40;82.60;96869.65;109055;1271;22531;-78
2023/02/03 07:25:48;;;;;;;8.90;4.40;;;;;;;-2.42;82.34;96873.64;108821;1274;22523;-78
2023/02/03 07:28:19;;;;;;;6.30;3.00;;;;;;;-2.34;82.76;96875.20;108800;1275;22526;-78
2023/02/03 07:30:51;;;;;;;8.30;4.80;;;;;;;-2.28;82.39;96877.20;107463;1272;1784727;-78
2023/02/03 07:33:24;;;;;;;7.50;3.90;;;;;;;-2.24;82.33;96870.84;108904;1274;24943;-78
2023/02/03 07:35:56;;;;;;;6.40;3.20;;;;;;;-2.26;81.92;96861.86;108790;1274;25428;-78
2023/02/03 07:38:30;;;;;;;11.40;5.30;;;;;;;-2.29;81.75;96863.09;108834;1271;22575;-78
2023/02/03 07:41:01;;;;;;;14.60;6.50;;;;;;;-2.23;81.81;96858.73;109002;1275;23791;-78
2023/02/03 07:43:35;;;;;;;17.50;8.20;;;;;;;-2.25;81.38;96861.91;108743;1275;23813;-78
2023/02/03 07:46:09;;;;;;;11.00;5.00;;;;;;;-2.22;81.32;96852.56;108818;1275;25927;-78
2023/02/03 07:48:40;;;;;;;9.00;4.00;;;;;;;-2.19;81.21;96856.33;108821;1275;22527;-79
2023/02/03 07:51:11;;;;;;;9.70;4.90;;;;;;;-2.13;81.00;96855.91;108989;1269;22517;-78
2023/02/03 07:53:47;;;;;;;8.70;4.80;;;;;;;-2.07;80.57;96855.73;109047;1275;24161;-78
2023/02/03 07:56:18;;;;;;;8.10;4.80;;;;;;;-2.03;80.28;96850.10;109056;1272;22588;-78
2023/02/03 07:58:52;;;;;;;8.20;4.40;;;;;;;-1.93;80.69;96845.70;108997;1267;23682;-79
2023/02/03 08:01:25;;;;;;;7.20;3.80;;;;;;;-1.81;80.48;96838.84;109033;1275;25252;-78
2023/02/03 08:03:56;;;;;;;8.10;4.20;;;;;;;-1.75;80.16;96828.23;109058;1275;25290;-78
2023/02/03 08:06:30;;;;;;;4.70;2.80;;;;;;;-1.74;79.58;96826.06;108996;1272;22521;-79
2023/02/03 08:09:04;;;;;;;4.90;2.70;;;;;;;-1.78;79.42;96828.49;109049;1272;22593;-78
2023/02/03 08:11:39;;;;;;;9.20;4.50;;;;;;;-1.90;78.72;96821.27;109071;1275;23854;-78
2023/02/03 08:14:10;;;;;;;7.50;3.90;;;;;;;-1.93;78.76;96813.54;108820;1275;22546;-78
2023/02/03 08:16:42;;;;;;;7.00;4.10;;;;;;;-1.95;78.71;96816.21;108803;1269;24217;-78
2023/02/03 08:19:16;;;;;;;8.60;4.90;;;;;;;-1.97;78.44;96816.47;108754;1273;122609;-78
2023/02/03 08:21:55;;;;;;;7.60;3.80;;;;;;;-1.91;78.97;96811.66;108753;1275;22513;-78
2023/02/03 08:24:27;;;;;;;5.10;3.20;;;;;;;-1.84;78.84;96805.27;108795;1275;25429;-78
2023/02/03 08:26:59;;;;;;;7.60;4.00;;;;;;;-1.79;78.45;96796.12;108860;1274;22624;-78
2023/02/03 08:29:34;;;;;;;9.40;4.20;;;;;;;-1.80;78.20;96790.67;108832;1269;22694;-78
2023/02/03 08:32:06;;;;;;;9.10;3.90;;;;;;;-1.82;77.91;96784.91;108811;1261;24313;-78
2023/02/03 08:34:42;;;;;;;6.80;4.60;;;;;;;-1.84;77.64;96782.02;109060;1270;24190;-79
2023/02/03 08:37:15;;;;;;;8.60;3.60;;;;;;;-1.80;77.33;96782.05;108996;1272;24269;-78
2023/02/03 08:39:47;;;;;;;7.30;4.30;;;;;;;-1.81;77.09;96774.05;108747;1275;22716;-78
2023/02/03 08:42:18;;;;;;;8.40;4.50;;;;;;;-1.81;76.79;96782.40;109006;1274;23911;-78
2023/02/03 08:44:49;;;;;;;8.30;3.50;;;;;;;-1.78;76.79;96768.57;108796;1275;22696;-78
2023/02/03 08:47:20;;;;;;;7.70;4.60;;;;;;;-1.81;76.43;96768.29;108780;1275;24456;-78
2023/02/03 08:49:54;;;;;;;8.80;4.40;;;;;;;-1.79;76.70;96761.90;108813;1275;24190;-78
2023/02/03 08:52:25;;;;;;;8.40;3.80;;;;;;;-1.76;76.67;96769.13;108785;1275;24205;-78
2023/02/03 08:55:00;;;;;;;9.20;4.40;;;;;;;-1.69;76.42;96762.46;108739;1275;22527;-77
2023/02/03 08:57:35;;;;;;;7.60;4.00;;;;;;;-1.62;75.87;96758.80;108814;1269;22599;-77
2023/02/03 09:00:10;;;;;;;6.50;3.60;;;;;;;-1.52;75.74;96749.19;108786;1274;25955;-78
2023/02/03 09:02:41;;;;;;;7.80;4.70;;;;;;;-1.51;75.31;96737.64;108846;1275;25982;-78
2023/02/03 09:05:14;;;;;;;9.20;4.00;;;;;;;-1.52;75.11;96743.79;108804;1274;25420;-78
2023/02/03 09:07:48;;;;;;;6.70;3.70;;;;;;;-1.50;74.80;96731.27;108819;1271;23772;-78
2023/02/03 09:10:20;;;;;;;6.40;2.90;;;;;;;-1.45;74.88;96719.06;108811;1274;23804;-78
2023/02/03 09:12:53;;;;;;;9.10;3.90;;;;;;;-1.41;74.37;96714.85;108746;1275;22883;-78
2023/02/03 09:15:25;;;;;;;7.00;3.60;;;;;;;-1.40;74.06;96718.88;108993;1275;24241;-78
2023/02/03 09:17:59;;;;;;;7.30;4.00;;;;;;;-1.39;73.72;96711.77;109056;1272;23680;-78
2023/02/03 09:20:35;;;;;;;7.10;3.40;;;;;;;-1.33;73.62;96700.27;109027;1275;22550;-78
2023/02/03 09:23:06;;;;;;;5.10;2.60;;;;;;;-1.28;73.31;96695.23;109038;1268;22829;-78
2023/02/03 09:25:37;;;;;;;5.20;3.30;;;;;;;-1.23;72.82;96700.34;109017;1275;22524;-78
2023/02/03 09:28:12;;;;;;;8.80;3.60;;;;;;;-1.16;73.09;96699.13;108806;1275;24223;-78
2023/02/03 09:30:43;;;;;;;6.60;3.40;;;;;;;-1.09;72.41;96701.17;108796;1271;130773;-78
2023/02/03 09:33:16;;;;;;;7.20;3.80;;;;;;;-1.03;72.54;96706.36;108816;1272;22560;-78
2023/02/03 09:35:56;;;;;;;7.10;3.30;;;;;;;-0.93;72.54;96703.58;108792;1275;24221;-78
2023/02/03 09:38:28;;;;;;;5.60;3.00;;;;;;;-0.85;72.23;96701.05;108794;1275;22557;-78
2023/02/03 09:41:04;;;;;;;6.30;3.30;;;;;;;-0.80;71.68;96693.36;108828;1272;22550;-78
2023/02/03 09:43:44;;;;;;;10.20;4.30;;;;;;;-0.79;71.26;96683.59;108790;1275;22550;-78
2023/02/03 09:46:21;;;;;;;7.90;4.00;;;;;;;-0.71;71.65;96690.40;108816;1272;24190;-79
2023/02/03 09:48:59;;;;;;;8.00;4.00;;;;;;;-0.50;71.69;96690.73;109006;1275;22548;-79
2023/02/03 09:51:40;;;;;;;7.00;4.00;;;;;;;-0.36;71.57;96684.63;108980;1275;24418;-79
2023/02/03 09:54:20;;;;;;;8.10;4.60;;;;;;;-0.23;71.55;96680.16;109019;1274;22547;-79
2023/02/03 09:56:54;;;;;;;8.00;4.80;;;;;;;-0.16;70.50;96673.78;109057;1275;22517;-79
2023/02/03 09:59:35;;;;;;;8.40;4.70;;;;;;;-0.17;70.88;96672.19;107760;1263;1725235;-79
2023/02/03 10:02:24;;;;;;;7.60;4.20;;;;;;;-0.17;71.06;96665.94;109079;1274;24278;-79
2023/02/03 10:05:06;;;;;;;10.10;4.50;;;;;;;-0.20;70.90;96667.77;108997;1274;24488;-79
2023/02/03 10:07:51;;;;;;;8.00;3.90;;;;;;;-0.27;70.95;96658.42;109005;1275;22669;-79
2023/02/03 10:10:33;;;;;;;9.50;4.10;;;;;;;-0.29;71.12;96655.21;109032;1275;23060;-80
2023/02/03 10:13:17;;;;;;;8.90;4.60;;;;;;;-0.30;70.69;96647.98;109086;1275;22554;-79
2023/02/03 10:16:08;;;;;;;7.10;3.70;;;;;;;-0.40;70.09;96641.38;109051;1275;25968;-79
2023/02/03 10:18:49;;;;;;;7.30;3.90;;;;;;;-0.48;70.24;96640.20;108972;1256;23892;-79
2023/02/03 10:21:35;;;;;;;8.20;3.20;;;;;;;-0.45;70.95;96635.42;108978;1251;22520;-80
2023/02/03 10:24:17;;;;;;;7.20;3.70;;;;;;;-0.50;71.06;96626.72;109015;1275;22528;-80
2023/02/03 10:26:49;;;;;;;8.10;4.10;;;;;;;-0.52;71.60;96614.31;109011;1275;22503;-80
2023/02/03 10:29:27;;;;;;;4.30;2.50;;;;;;;-0.60;72.61;96600.29;109008;1267;22533;-80
2023/02/03 10:32:01;;;;;;;6.50;3.50;;;;;;;-0.74;73.23;96595.02;109065;1275;22584;-80
2023/02/03 10:34:38;;;;;;;5.40;2.30;;;;;;;-0.78;74.12;96589.20;109052;1267;22562;-79
2023/02/03 10:37:24;;;;;;;9.90;5.30;;;;;;;-0.77;74.23;96564.61;109032;1257;23695;-79
2023/02/03 10:40:00;;;;;;;6.80;4.10;;;;;;;-0.72;74.86;96561.25;109064;1275;23345;-79
2023/02/03 10:45:21;;;;;;;8.10;3.90;;;;;;;-0.54;74.91;96543.46;109000;1273;22655;-79
2023/02/03 10:47:55;;;;;;;7.10;3.60;;;;;;;-0.51;74.83;96533.52;109010;1273;25266;-80
2023/02/03 10:50:31;;;;;;;7.40;4.40;;;;;;;-0.52;75.44;96523.50;109029;1274;22849;-79
2023/02/03 10:53:25;;;;;;;5.70;3.10;;;;;;;-0.49;75.81;96517.11;109012;1273;22595;-80
2023/02/03 10:56:11;;;;;;;5.60;2.80;;;;;;;-0.52;76.64;96505.07;109034;1274;24276;-80
2023/02/03 10:58:51;;;;;;;7.70;4.20;;;;;;;-0.56;77.64;96495.33;109106;1275;24356;-80
2023/02/03 11:01:40;;;;;;;3.00;1.70;;;;;;;-0.59;78.64;96492.21;108985;1273;22552;-80
2023/02/03 11:04:26;;;;;;;5.00;2.70;;;;;;;-0.69;79.39;96472.95;109037;1275;22535;-80
2023/02/03 11:07:02;;;;;;;6.40;3.30;;;;;;;-0.76;79.94;96456.20;108988;1275;22539;-80
2023/02/03 11:09:40;;;;;;;4.80;2.70;;;;;;;-0.83;80.24;96447.80;109090;1274;22651;-80
2023/02/03 11:12:18;;;;;;;5.20;3.00;;;;;;;-0.89;80.38;96440.31;109041;1274;22522;-80
2023/02/03 11:14:54;;;;;;;5.80;3.00;;;;;;;-0.95;81.62;96439.20;109032;1273;22534;-80
2023/02/03 11:17:31;;;;;;;7.60;3.70;;;;;;;-0.98;81.95;96434.92;109119;1274;22621;-80
2023/02/03 11:20:26;;;;;;;4.80;2.40;;;;;;;-1.04;82.91;96420.35;108982;1275;22557;-80
2023/02/03 11:23:01;;;;;;;3.70;2.40;;;;;;;-1.15;83.87;96407.84;109026;1275;22526;-80
2023/02/03 11:25:34;;;;;;;5.30;2.10;;;;;;;-1.23;84.69;96394.42;109031;1274;22531;-80
2023/02/03 11:28:10;;;;;;;4.60;2.80;;;;;;;-1.22;85.48;96393.66;109027;1251;22548;-80
2023/02/03 11:30:45;;;;;;;2.60;1.60;;;;;;;-1.21;86.14;96385.84;109036;1274;23246;-80
2023/02/03 11:33:32;;;;;;;4.20;2.50;;;;;;;-1.24;86.62;96372.73;109025;1272;22528;-80
2023/02/03 11:36:15;;;;;;;2.70;2.10;;;;;;;-1.21;87.16;96362.00;109095;1267;22598;-80
2023/02/03 11:38:53;;;;;;;2.50;1.60;;;;;;;-1.17;87.18;96348.39;109030;1275;22563;-80
2023/02/03 11:41:24;;;;;;;3.70;1.70;;;;;;;-1.18;87.57;96331.52;109027;1275;25438;-80
2023/02/03 11:43:57;;;;;;;3.10;1.80;;;;;;;-1.20;88.50;96334.22;109015;1274;22531;-80
2023/02/03 11:46:39;;;;;;;5.00;1.70;;;;;;;-1.19;88.90;96315.37;109047;1275;22547;-80
2023/02/03 11:49:37;;;;;;;8.00;2.60;;;;;;;-1.22;89.11;96309.71;109010;1267;23399;-80
2023/02/03 11:52:45;;;;;;;3.50;1.80;;;;;;;-1.22;89.70;96296.75;108997;1264;23742;-80
2023/02/03 11:55:31;;;;;;;3.70;2.10;;;;;;;-1.27;90.10;96279.89;109008;1275;22521;-80
2023/02/03 11:58:40;;;;;;;2.60;1.90;;;;;;;-1.33;90.90;96276.90;109033;1275;25453;-80
2023/02/03 12:01:25;;;;;;;2.80;2.00;;;;;;;-1.39;91.58;96250.55;108953;1267;25952;-80
2023/02/03 12:04:51;;;;;;;1.90;1.50;;;;;;;-1.44;92.18;96242.17;108928;1273;156246;-81
2023/02/03 12:07:50;;;;;;;3.50;2.90;;;;;;;-1.49;92.85;96232.66;108281;1280;22552;-81
2023/02/03 12:10:36;;;;;;;3.20;2.00;;;;;;;-1.51;93.31;96222.84;109044;1275;24368;-81
2023/02/03 12:13:24;;;;;;;4.90;2.00;;;;;;;-1.51;93.60;96213.41;109047;1251;22532;-80